sensor_id;sensor_type;location;lat;lon;timestamp;P1;durP1;ratioP1;P2;durP2;ratioP2
36799;SDS011;22752;51.960;5.886;2023-07-08T00:00:16;4.85;;;2.22;;
36799;SDS011;22752;51.960;5.886;2023-07-08T00:02:43;3.53;;;2.53;;
36799;SDS011;22752;51.960;5.886;2023-07-08T00:05:13;3.97;;;2.50;;
36799;SDS011;22752;51.960;5.886;2023-07-08T00:07:41;3.70;;;2.45;;
36799;SDS011;22752;51.960;5.886;2023-07-08T00:12:38;4.57;;;2.33;;
36799;SDS011;22752;51.960;5.886;2023-07-08T00:15:04;3.90;;;2.58;;
36799;SDS011;22752;51.960;5.886;2023-07-08T00:17:30;4.32;;;2.25;;
36799;SDS011;22752;51.960;5.886;2023-07-08T00:19:56;5.10;;;2.60;;
36799;SDS011;22752;51.960;5.886;2023-07-08T00:22:22;5.97;;;2.85;;
36799;SDS011;22752;51.960;5.886;2023-07-08T00:24:49;4.43;;;2.53;;
36799;SDS011;22752;51.960;5.886;2023-07-08T00:27:16;2.67;;;2.30;;
36799;SDS011;22752;51.960;5.886;2023-07-08T00:29:42;4.07;;;2.60;;
36799;SDS011;22752;51.960;5.886;2023-07-08T00:32:13;3.88;;;2.58;;
36799;SDS011;22752;51.960;5.886;2023-07-08T00:34:39;4.03;;;2.63;;
36799;SDS011;22752;51.960;5.886;2023-07-08T00:37:08;3.90;;;2.38;;
36799;SDS011;22752;51.960;5.886;2023-07-08T00:39:36;3.83;;;2.30;;
36799;SDS011;22752;51.960;5.886;2023-07-08T00:42:02;3.60;;;2.50;;
36799;SDS011;22752;51.960;5.886;2023-07-08T00:44:39;3.20;;;2.47;;
36799;SDS011;22752;51.960;5.886;2023-07-08T00:47:08;3.33;;;2.28;;
36799;SDS011;22752;51.960;5.886;2023-07-08T00:49:43;6.45;;;2.42;;
36799;SDS011;22752;51.960;5.886;2023-07-08T00:52:17;3.97;;;2.47;;
36799;SDS011;22752;51.960;5.886;2023-07-08T00:54:46;4.18;;;2.88;;
36799;SDS011;22752;51.960;5.886;2023-07-08T00:57:14;4.32;;;2.42;;
36799;SDS011;22752;51.960;5.886;2023-07-08T00:59:59;6.53;;;2.30;;
36799;SDS011;22752;51.960;5.886;2023-07-08T01:02:29;3.10;;;2.47;;
36799;SDS011;22752;51.960;5.886;2023-07-08T01:05:06;4.85;;;2.63;;
36799;SDS011;22752;51.960;5.886;2023-07-08T01:07:36;4.53;;;2.45;;
36799;SDS011;22752;51.960;5.886;2023-07-08T01:10:05;2.97;;;2.45;;
36799;SDS011;22752;51.960;5.886;2023-07-08T01:12:38;3.40;;;2.30;;
36799;SDS011;22752;51.960;5.886;2023-07-08T01:15:13;7.45;;;3.10;;
36799;SDS011;22752;51.960;5.886;2023-07-08T01:17:40;2.65;;;2.00;;
36799;SDS011;22752;51.960;5.886;2023-07-08T01:20:08;4.90;;;2.70;;
36799;SDS011;22752;51.960;5.886;2023-07-08T01:22:38;3.55;;;2.40;;
36799;SDS011;22752;51.960;5.886;2023-07-08T01:25:05;6.35;;;2.47;;
36799;SDS011;22752;51.960;5.886;2023-07-08T01:27:34;5.20;;;2.80;;
36799;SDS011;22752;51.960;5.886;2023-07-08T01:30:03;5.47;;;2.47;;
36799;SDS011;22752;51.960;5.886;2023-07-08T01:32:31;4.25;;;2.88;;
36799;SDS011;22752;51.960;5.886;2023-07-08T01:34:59;3.47;;;2.25;;
36799;SDS011;22752;51.960;5.886;2023-07-08T01:37:46;4.40;;;2.67;;
36799;SDS011;22752;51.960;5.886;2023-07-08T01:42:41;4.15;;;2.70;;
36799;SDS011;22752;51.960;5.886;2023-07-08T01:45:10;4.03;;;2.40;;
36799;SDS011;22752;51.960;5.886;2023-07-08T01:47:37;3.15;;;2.47;;
36799;SDS011;22752;51.960;5.886;2023-07-08T01:50:04;4.78;;;2.42;;
36799;SDS011;22752;51.960;5.886;2023-07-08T01:52:31;4.00;;;2.40;;
36799;SDS011;22752;51.960;5.886;2023-07-08T01:54:57;3.47;;;2.60;;
36799;SDS011;22752;51.960;5.886;2023-07-08T01:57:22;5.90;;;3.03;;
36799;SDS011;22752;51.960;5.886;2023-07-08T01:59:48;5.25;;;2.80;;
36799;SDS011;22752;51.960;5.886;2023-07-08T02:02:15;6.03;;;2.67;;
36799;SDS011;22752;51.960;5.886;2023-07-08T02:04:40;5.35;;;2.53;;
36799;SDS011;22752;51.960;5.886;2023-07-08T02:07:06;3.97;;;2.80;;
36799;SDS011;22752;51.960;5.886;2023-07-08T02:09:32;3.55;;;2.38;;
36799;SDS011;22752;51.960;5.886;2023-07-08T02:11:57;5.60;;;2.50;;
36799;SDS011;22752;51.960;5.886;2023-07-08T02:14:23;4.20;;;2.70;;
36799;SDS011;22752;51.960;5.886;2023-07-08T02:16:48;6.40;;;2.78;;
36799;SDS011;22752;51.960;5.886;2023-07-08T02:19:14;5.45;;;3.00;;
36799;SDS011;22752;51.960;5.886;2023-07-08T02:21:40;6.30;;;2.90;;
36799;SDS011;22752;51.960;5.886;2023-07-08T02:24:08;3.83;;;2.60;;
36799;SDS011;22752;51.960;5.886;2023-07-08T02:26:33;3.33;;;2.35;;
36799;SDS011;22752;51.960;5.886;2023-07-08T02:28:59;5.05;;;2.75;;
36799;SDS011;22752;51.960;5.886;2023-07-08T02:31:25;5.03;;;2.55;;
36799;SDS011;22752;51.960;5.886;2023-07-08T02:33:51;18.52;;;3.00;;
36799;SDS011;22752;51.960;5.886;2023-07-08T02:36:18;4.35;;;2.60;;
36799;SDS011;22752;51.960;5.886;2023-07-08T02:38:44;4.82;;;2.88;;
36799;SDS011;22752;51.960;5.886;2023-07-08T02:41:09;4.47;;;2.45;;
36799;SDS011;22752;51.960;5.886;2023-07-08T02:43:36;5.60;;;2.55;;
36799;SDS011;22752;51.960;5.886;2023-07-08T02:46:02;6.20;;;2.70;;
36799;SDS011;22752;51.960;5.886;2023-07-08T02:48:28;4.70;;;2.92;;
36799;SDS011;22752;51.960;5.886;2023-07-08T02:51:00;5.60;;;2.67;;
36799;SDS011;22752;51.960;5.886;2023-07-08T02:53:27;3.85;;;2.40;;
36799;SDS011;22752;51.960;5.886;2023-07-08T02:55:53;5.18;;;2.90;;
36799;SDS011;22752;51.960;5.886;2023-07-08T02:58:18;9.55;;;2.63;;
36799;SDS011;22752;51.960;5.886;2023-07-08T03:00:44;3.45;;;2.50;;
36799;SDS011;22752;51.960;5.886;2023-07-08T03:03:09;6.82;;;2.88;;
36799;SDS011;22752;51.960;5.886;2023-07-08T03:05:36;5.22;;;2.80;;
36799;SDS011;22752;51.960;5.886;2023-07-08T03:08:01;5.25;;;2.55;;
36799;SDS011;22752;51.960;5.886;2023-07-08T03:10:27;4.03;;;2.45;;
36799;SDS011;22752;51.960;5.886;2023-07-08T03:12:53;4.88;;;2.97;;
36799;SDS011;22752;51.960;5.886;2023-07-08T03:15:18;6.80;;;2.72;;
36799;SDS011;22752;51.960;5.886;2023-07-08T03:17:44;6.78;;;2.85;;
36799;SDS011;22752;51.960;5.886;2023-07-08T03:20:10;5.57;;;2.92;;
36799;SDS011;22752;51.960;5.886;2023-07-08T03:22:36;3.55;;;2.70;;
36799;SDS011;22752;51.960;5.886;2023-07-08T03:25:02;4.03;;;2.58;;
36799;SDS011;22752;51.960;5.886;2023-07-08T03:27:28;3.85;;;2.60;;
36799;SDS011;22752;51.960;5.886;2023-07-08T03:29:54;3.55;;;2.85;;
36799;SDS011;22752;51.960;5.886;2023-07-08T03:32:20;3.33;;;2.50;;
36799;SDS011;22752;51.960;5.886;2023-07-08T03:34:45;6.38;;;2.90;;
36799;SDS011;22752;51.960;5.886;2023-07-08T03:37:11;4.32;;;2.70;;
36799;SDS011;22752;51.960;5.886;2023-07-08T03:39:38;2.83;;;2.50;;
36799;SDS011;22752;51.960;5.886;2023-07-08T03:42:04;5.82;;;2.50;;
36799;SDS011;22752;51.960;5.886;2023-07-08T03:44:30;5.00;;;2.60;;
36799;SDS011;22752;51.960;5.886;2023-07-08T03:46:55;4.13;;;2.63;;
36799;SDS011;22752;51.960;5.886;2023-07-08T03:49:22;2.72;;;2.50;;
36799;SDS011;22752;51.960;5.886;2023-07-08T03:51:49;6.78;;;2.55;;
36799;SDS011;22752;51.960;5.886;2023-07-08T03:54:19;4.47;;;2.50;;
36799;SDS011;22752;51.960;5.886;2023-07-08T03:56:46;3.65;;;2.67;;
36799;SDS011;22752;51.960;5.886;2023-07-08T03:59:11;2.80;;;2.60;;
36799;SDS011;22752;51.960;5.886;2023-07-08T04:01:37;5.43;;;2.60;;
36799;SDS011;22752;51.960;5.886;2023-07-08T04:04:06;7.32;;;2.95;;
36799;SDS011;22752;51.960;5.886;2023-07-08T04:06:33;3.60;;;2.50;;
36799;SDS011;22752;51.960;5.886;2023-07-08T04:08:59;3.65;;;2.45;;
36799;SDS011;22752;51.960;5.886;2023-07-08T04:11:25;4.25;;;2.50;;
36799;SDS011;22752;51.960;5.886;2023-07-08T04:13:51;3.72;;;2.25;;
36799;SDS011;22752;51.960;5.886;2023-07-08T04:16:24;4.70;;;2.60;;
36799;SDS011;22752;51.960;5.886;2023-07-08T04:18:55;5.25;;;2.53;;
36799;SDS011;22752;51.960;5.886;2023-07-08T04:21:22;4.15;;;2.53;;
36799;SDS011;22752;51.960;5.886;2023-07-08T04:23:50;5.03;;;2.63;;
36799;SDS011;22752;51.960;5.886;2023-07-08T04:26:15;3.95;;;2.47;;
36799;SDS011;22752;51.960;5.886;2023-07-08T04:28:43;4.95;;;2.42;;
36799;SDS011;22752;51.960;5.886;2023-07-08T04:31:10;4.32;;;2.75;;
36799;SDS011;22752;51.960;5.886;2023-07-08T04:33:35;7.10;;;2.67;;
36799;SDS011;22752;51.960;5.886;2023-07-08T04:36:01;5.43;;;2.75;;
36799;SDS011;22752;51.960;5.886;2023-07-08T04:38:27;3.42;;;2.30;;
36799;SDS011;22752;51.960;5.886;2023-07-08T04:40:53;3.55;;;2.50;;
36799;SDS011;22752;51.960;5.886;2023-07-08T04:43:20;4.78;;;2.67;;
36799;SDS011;22752;51.960;5.886;2023-07-08T04:45:52;4.15;;;2.58;;
36799;SDS011;22752;51.960;5.886;2023-07-08T04:48:19;3.85;;;2.72;;
36799;SDS011;22752;51.960;5.886;2023-07-08T04:50:48;8.38;;;2.80;;
36799;SDS011;22752;51.960;5.886;2023-07-08T04:53:15;5.90;;;2.42;;
36799;SDS011;22752;51.960;5.886;2023-07-08T04:55:42;3.47;;;2.60;;
36799;SDS011;22752;51.960;5.886;2023-07-08T04:58:11;4.95;;;2.30;;
36799;SDS011;22752;51.960;5.886;2023-07-08T05:00:37;3.78;;;2.10;;
36799;SDS011;22752;51.960;5.886;2023-07-08T05:03:03;3.67;;;2.35;;
36799;SDS011;22752;51.960;5.886;2023-07-08T05:05:29;4.97;;;2.70;;
36799;SDS011;22752;51.960;5.886;2023-07-08T05:07:55;4.75;;;2.83;;
36799;SDS011;22752;51.960;5.886;2023-07-08T05:10:20;4.40;;;2.42;;
36799;SDS011;22752;51.960;5.886;2023-07-08T05:12:47;4.50;;;3.42;;
36799;SDS011;22752;51.960;5.886;2023-07-08T05:15:13;6.82;;;2.75;;
36799;SDS011;22752;51.960;5.886;2023-07-08T05:17:40;3.90;;;2.92;;
36799;SDS011;22752;51.960;5.886;2023-07-08T05:20:07;7.32;;;2.90;;
36799;SDS011;22752;51.960;5.886;2023-07-08T05:22:34;3.92;;;2.55;;
36799;SDS011;22752;51.960;5.886;2023-07-08T05:25:00;4.03;;;2.40;;
36799;SDS011;22752;51.960;5.886;2023-07-08T05:27:26;2.78;;;2.30;;
36799;SDS011;22752;51.960;5.886;2023-07-08T05:29:52;4.80;;;2.33;;
36799;SDS011;22752;51.960;5.886;2023-07-08T05:32:18;5.55;;;2.65;;
36799;SDS011;22752;51.960;5.886;2023-07-08T05:34:44;3.42;;;2.47;;
36799;SDS011;22752;51.960;5.886;2023-07-08T05:37:11;5.18;;;2.30;;
36799;SDS011;22752;51.960;5.886;2023-07-08T05:39:37;3.30;;;2.33;;
36799;SDS011;22752;51.960;5.886;2023-07-08T05:42:03;5.38;;;2.63;;
36799;SDS011;22752;51.960;5.886;2023-07-08T05:44:29;6.15;;;2.70;;
36799;SDS011;22752;51.960;5.886;2023-07-08T05:46:55;2.72;;;2.40;;
36799;SDS011;22752;51.960;5.886;2023-07-08T05:49:20;4.10;;;2.03;;
36799;SDS011;22752;51.960;5.886;2023-07-08T05:51:46;3.25;;;2.40;;
36799;SDS011;22752;51.960;5.886;2023-07-08T05:54:12;2.47;;;2.10;;
36799;SDS011;22752;51.960;5.886;2023-07-08T05:56:38;3.95;;;2.40;;
36799;SDS011;22752;51.960;5.886;2023-07-08T05:59:03;9.13;;;2.50;;
36799;SDS011;22752;51.960;5.886;2023-07-08T06:01:29;7.45;;;3.05;;
36799;SDS011;22752;51.960;5.886;2023-07-08T06:03:55;4.95;;;2.50;;
36799;SDS011;22752;51.960;5.886;2023-07-08T06:06:28;2.72;;;2.25;;
36799;SDS011;22752;51.960;5.886;2023-07-08T06:08:54;2.83;;;2.22;;
36799;SDS011;22752;51.960;5.886;2023-07-08T06:11:20;5.07;;;2.40;;
36799;SDS011;22752;51.960;5.886;2023-07-08T06:13:47;4.07;;;2.45;;
36799;SDS011;22752;51.960;5.886;2023-07-08T06:16:13;7.57;;;2.40;;
36799;SDS011;22752;51.960;5.886;2023-07-08T06:18:39;3.67;;;2.30;;
36799;SDS011;22752;51.960;5.886;2023-07-08T06:21:04;4.90;;;2.60;;
36799;SDS011;22752;51.960;5.886;2023-07-08T06:23:30;3.40;;;2.35;;
36799;SDS011;22752;51.960;5.886;2023-07-08T06:25:56;4.22;;;2.28;;
36799;SDS011;22752;51.960;5.886;2023-07-08T06:28:22;4.55;;;2.40;;
36799;SDS011;22752;51.960;5.886;2023-07-08T06:30:48;3.80;;;2.53;;
36799;SDS011;22752;51.960;5.886;2023-07-08T06:33:14;3.90;;;2.67;;
36799;SDS011;22752;51.960;5.886;2023-07-08T06:35:40;3.53;;;2.33;;
36799;SDS011;22752;51.960;5.886;2023-07-08T06:38:07;6.32;;;2.60;;
36799;SDS011;22752;51.960;5.886;2023-07-08T06:40:33;4.53;;;2.53;;
36799;SDS011;22752;51.960;5.886;2023-07-08T06:42:59;3.97;;;2.65;;
36799;SDS011;22752;51.960;5.886;2023-07-08T06:45:27;6.53;;;2.63;;
36799;SDS011;22752;51.960;5.886;2023-07-08T06:47:52;5.13;;;3.05;;
36799;SDS011;22752;51.960;5.886;2023-07-08T06:50:18;5.80;;;2.78;;
36799;SDS011;22752;51.960;5.886;2023-07-08T06:52:44;3.60;;;2.90;;
36799;SDS011;22752;51.960;5.886;2023-07-08T06:55:10;8.73;;;2.75;;
36799;SDS011;22752;51.960;5.886;2023-07-08T06:57:36;4.50;;;2.53;;
36799;SDS011;22752;51.960;5.886;2023-07-08T07:00:08;4.65;;;3.28;;
36799;SDS011;22752;51.960;5.886;2023-07-08T07:02:35;5.88;;;2.80;;
36799;SDS011;22752;51.960;5.886;2023-07-08T07:05:01;3.97;;;3.05;;
36799;SDS011;22752;51.960;5.886;2023-07-08T07:07:27;5.20;;;2.55;;
36799;SDS011;22752;51.960;5.886;2023-07-08T07:09:53;3.80;;;2.60;;
36799;SDS011;22752;51.960;5.886;2023-07-08T07:12:19;3.58;;;2.55;;
36799;SDS011;22752;51.960;5.886;2023-07-08T07:14:45;2.50;;;2.30;;
36799;SDS011;22752;51.960;5.886;2023-07-08T07:17:11;4.47;;;2.50;;
36799;SDS011;22752;51.960;5.886;2023-07-08T07:19:37;4.53;;;2.80;;
36799;SDS011;22752;51.960;5.886;2023-07-08T07:22:02;3.20;;;2.45;;
36799;SDS011;22752;51.960;5.886;2023-07-08T07:24:28;8.32;;;2.50;;
36799;SDS011;22752;51.960;5.886;2023-07-08T07:26:54;7.68;;;2.95;;
36799;SDS011;22752;51.960;5.886;2023-07-08T07:29:21;4.00;;;2.65;;
36799;SDS011;22752;51.960;5.886;2023-07-08T07:31:48;2.88;;;2.10;;
36799;SDS011;22752;51.960;5.886;2023-07-08T07:34:13;4.45;;;2.50;;
36799;SDS011;22752;51.960;5.886;2023-07-08T07:36:39;3.65;;;2.30;;
36799;SDS011;22752;51.960;5.886;2023-07-08T07:39:05;3.38;;;2.42;;
36799;SDS011;22752;51.960;5.886;2023-07-08T07:41:31;7.85;;;3.15;;
36799;SDS011;22752;51.960;5.886;2023-07-08T07:43:56;3.58;;;2.90;;
36799;SDS011;22752;51.960;5.886;2023-07-08T07:46:22;3.00;;;2.60;;
36799;SDS011;22752;51.960;5.886;2023-07-08T07:48:48;3.80;;;2.60;;
36799;SDS011;22752;51.960;5.886;2023-07-08T07:51:13;3.80;;;2.72;;
36799;SDS011;22752;51.960;5.886;2023-07-08T07:53:39;4.13;;;2.53;;
36799;SDS011;22752;51.960;5.886;2023-07-08T07:56:05;3.22;;;2.80;;
36799;SDS011;22752;51.960;5.886;2023-07-08T07:58:31;4.53;;;2.67;;
36799;SDS011;22752;51.960;5.886;2023-07-08T08:00:57;2.65;;;2.28;;
36799;SDS011;22752;51.960;5.886;2023-07-08T08:03:23;4.55;;;2.47;;
36799;SDS011;22752;51.960;5.886;2023-07-08T08:05:49;6.75;;;2.90;;
36799;SDS011;22752;51.960;5.886;2023-07-08T08:08:15;3.10;;;2.50;;
36799;SDS011;22752;51.960;5.886;2023-07-08T08:10:44;4.68;;;3.00;;
36799;SDS011;22752;51.960;5.886;2023-07-08T08:13:10;4.20;;;2.88;;
36799;SDS011;22752;51.960;5.886;2023-07-08T08:15:36;3.72;;;2.75;;
36799;SDS011;22752;51.960;5.886;2023-07-08T08:18:02;5.63;;;2.67;;
36799;SDS011;22752;51.960;5.886;2023-07-08T08:20:28;3.58;;;3.00;;
36799;SDS011;22752;51.960;5.886;2023-07-08T08:22:54;5.10;;;3.15;;
36799;SDS011;22752;51.960;5.886;2023-07-08T08:25:21;3.80;;;2.60;;
36799;SDS011;22752;51.960;5.886;2023-07-08T08:27:48;4.38;;;2.90;;
36799;SDS011;22752;51.960;5.886;2023-07-08T08:30:15;7.00;;;3.50;;
36799;SDS011;22752;51.960;5.886;2023-07-08T08:32:40;3.30;;;2.72;;
36799;SDS011;22752;51.960;5.886;2023-07-08T08:35:06;4.15;;;3.20;;
36799;SDS011;22752;51.960;5.886;2023-07-08T08:37:32;5.32;;;3.00;;
36799;SDS011;22752;51.960;5.886;2023-07-08T08:39:58;5.25;;;3.00;;
36799;SDS011;22752;51.960;5.886;2023-07-08T08:42:34;5.07;;;3.30;;
36799;SDS011;22752;51.960;5.886;2023-07-08T08:45:14;4.70;;;2.72;;
36799;SDS011;22752;51.960;5.886;2023-07-08T08:47:46;8.32;;;3.30;;
36799;SDS011;22752;51.960;5.886;2023-07-08T08:52:50;8.07;;;4.13;;
36799;SDS011;22752;51.960;5.886;2023-07-08T08:55:16;5.35;;;3.60;;
36799;SDS011;22752;51.960;5.886;2023-07-08T08:57:48;6.43;;;3.58;;
36799;SDS011;22752;51.960;5.886;2023-07-08T09:01:16;4.18;;;3.17;;
36799;SDS011;22752;51.960;5.886;2023-07-08T09:03:27;3.60;;;3.30;;
36799;SDS011;22752;51.960;5.886;2023-07-08T09:05:58;4.97;;;3.60;;
36799;SDS011;22752;51.960;5.886;2023-07-08T09:08:31;7.18;;;3.95;;
36799;SDS011;22752;51.960;5.886;2023-07-08T09:13:42;6.05;;;3.30;;
36799;SDS011;22752;51.960;5.886;2023-07-08T09:19:15;4.38;;;3.97;;
36799;SDS011;22752;51.960;5.886;2023-07-08T09:27:13;7.50;;;3.80;;
36799;SDS011;22752;51.960;5.886;2023-07-08T09:29:38;6.70;;;3.95;;
36799;SDS011;22752;51.960;5.886;2023-07-08T09:32:21;8.85;;;4.28;;
36799;SDS011;22752;51.960;5.886;2023-07-08T09:34:55;7.10;;;4.22;;
36799;SDS011;22752;51.960;5.886;2023-07-08T09:37:28;4.38;;;3.63;;
36799;SDS011;22752;51.960;5.886;2023-07-08T09:39:55;4.80;;;3.88;;
36799;SDS011;22752;51.960;5.886;2023-07-08T09:42:25;4.90;;;3.17;;
36799;SDS011;22752;51.960;5.886;2023-07-08T09:44:57;7.40;;;4.30;;
36799;SDS011;22752;51.960;5.886;2023-07-08T09:47:27;5.32;;;4.00;;
36799;SDS011;22752;51.960;5.886;2023-07-08T09:49:58;5.28;;;4.25;;
36799;SDS011;22752;51.960;5.886;2023-07-08T09:52:25;7.82;;;4.38;;
36799;SDS011;22752;51.960;5.886;2023-07-08T09:54:51;6.53;;;4.10;;
36799;SDS011;22752;51.960;5.886;2023-07-08T09:57:30;5.03;;;4.25;;
36799;SDS011;22752;51.960;5.886;2023-07-08T09:59:58;4.18;;;3.75;;
36799;SDS011;22752;51.960;5.886;2023-07-08T10:05:17;5.60;;;4.43;;
36799;SDS011;22752;51.960;5.886;2023-07-08T10:07:47;5.50;;;4.20;;
36799;SDS011;22752;51.960;5.886;2023-07-08T10:10:18;5.90;;;3.80;;
36799;SDS011;22752;51.960;5.886;2023-07-08T10:12:53;5.72;;;4.10;;
36799;SDS011;22752;51.960;5.886;2023-07-08T10:15:27;10.30;;;4.00;;
36799;SDS011;22752;51.960;5.886;2023-07-08T10:17:58;4.70;;;4.10;;
36799;SDS011;22752;51.960;5.886;2023-07-08T10:20:25;6.55;;;4.60;;
36799;SDS011;22752;51.960;5.886;2023-07-08T10:23:07;6.10;;;4.30;;
36799;SDS011;22752;51.960;5.886;2023-07-08T10:25:50;5.70;;;4.70;;
36799;SDS011;22752;51.960;5.886;2023-07-08T10:28:33;8.18;;;4.13;;
36799;SDS011;22752;51.960;5.886;2023-07-08T10:36:19;8.05;;;4.78;;
36799;SDS011;22752;51.960;5.886;2023-07-08T10:41:43;7.05;;;4.95;;
36799;SDS011;22752;51.960;5.886;2023-07-08T10:47:35;6.22;;;4.88;;
36799;SDS011;22752;51.960;5.886;2023-07-08T10:55:40;5.15;;;4.10;;
36799;SDS011;22752;51.960;5.886;2023-07-08T10:58:29;7.47;;;4.88;;
36799;SDS011;22752;51.960;5.886;2023-07-08T11:09:22;8.27;;;5.10;;
36799;SDS011;22752;51.960;5.886;2023-07-08T11:11:55;6.47;;;4.97;;
36799;SDS011;22752;51.960;5.886;2023-07-08T11:14:26;7.90;;;4.83;;
36799;SDS011;22752;51.960;5.886;2023-07-08T11:17:08;6.28;;;4.93;;
36799;SDS011;22752;51.960;5.886;2023-07-08T11:19:45;7.63;;;5.03;;
36799;SDS011;22752;51.960;5.886;2023-07-08T11:22:18;8.70;;;4.00;;
36799;SDS011;22752;51.960;5.886;2023-07-08T11:24:49;5.90;;;4.20;;
36799;SDS011;22752;51.960;5.886;2023-07-08T11:27:23;9.07;;;5.20;;
36799;SDS011;22752;51.960;5.886;2023-07-08T11:30:03;6.97;;;4.72;;
36799;SDS011;22752;51.960;5.886;2023-07-08T11:32:35;9.00;;;5.30;;
36799;SDS011;22752;51.960;5.886;2023-07-08T11:35:03;8.35;;;4.45;;
36799;SDS011;22752;51.960;5.886;2023-07-08T11:37:31;6.18;;;4.20;;
36799;SDS011;22752;51.960;5.886;2023-07-08T11:40:00;6.38;;;4.65;;
36799;SDS011;22752;51.960;5.886;2023-07-08T11:42:50;5.55;;;4.57;;
36799;SDS011;22752;51.960;5.886;2023-07-08T11:47:47;6.88;;;4.75;;
36799;SDS011;22752;51.960;5.886;2023-07-08T11:53:30;6.18;;;4.68;;
36799;SDS011;22752;51.960;5.886;2023-07-08T11:58:23;6.20;;;4.60;;
36799;SDS011;22752;51.960;5.886;2023-07-08T12:01:04;6.35;;;4.32;;
36799;SDS011;22752;51.960;5.886;2023-07-08T12:03:53;5.05;;;3.97;;
36799;SDS011;22752;51.960;5.886;2023-07-08T12:06:41;6.63;;;4.95;;
36799;SDS011;22752;51.960;5.886;2023-07-08T12:09:25;6.00;;;4.40;;
36799;SDS011;22752;51.960;5.886;2023-07-08T12:11:55;6.82;;;4.97;;
36799;SDS011;22752;51.960;5.886;2023-07-08T12:14:24;7.70;;;5.20;;
36799;SDS011;22752;51.960;5.886;2023-07-08T12:16:52;6.25;;;5.00;;
36799;SDS011;22752;51.960;5.886;2023-07-08T12:19:18;9.05;;;5.30;;
36799;SDS011;22752;51.960;5.886;2023-07-08T12:21:47;9.90;;;5.65;;
36799;SDS011;22752;51.960;5.886;2023-07-08T12:24:13;7.80;;;5.22;;
36799;SDS011;22752;51.960;5.886;2023-07-08T12:26:40;10.25;;;5.28;;
36799;SDS011;22752;51.960;5.886;2023-07-08T12:29:07;6.60;;;4.85;;
36799;SDS011;22752;51.960;5.886;2023-07-08T12:31:38;8.50;;;5.13;;
36799;SDS011;22752;51.960;5.886;2023-07-08T12:34:07;10.35;;;5.07;;
36799;SDS011;22752;51.960;5.886;2023-07-08T12:36:38;7.35;;;5.18;;
36799;SDS011;22752;51.960;5.886;2023-07-08T12:39:03;9.02;;;4.93;;
36799;SDS011;22752;51.960;5.886;2023-07-08T12:41:31;6.63;;;4.72;;
36799;SDS011;22752;51.960;5.886;2023-07-08T12:44:00;8.38;;;4.75;;
36799;SDS011;22752;51.960;5.886;2023-07-08T12:46:27;7.88;;;5.13;;
36799;SDS011;22752;51.960;5.886;2023-07-08T12:48:53;5.88;;;4.95;;
36799;SDS011;22752;51.960;5.886;2023-07-08T12:51:23;6.10;;;4.85;;
36799;SDS011;22752;51.960;5.886;2023-07-08T12:53:50;7.25;;;4.93;;
36799;SDS011;22752;51.960;5.886;2023-07-08T12:56:18;9.45;;;5.43;;
36799;SDS011;22752;51.960;5.886;2023-07-08T12:58:51;6.28;;;5.25;;
36799;SDS011;22752;51.960;5.886;2023-07-08T13:01:29;7.63;;;5.50;;
36799;SDS011;22752;51.960;5.886;2023-07-08T13:04:08;6.30;;;4.78;;
36799;SDS011;22752;51.960;5.886;2023-07-08T13:06:35;7.25;;;5.60;;
36799;SDS011;22752;51.960;5.886;2023-07-08T13:09:23;8.55;;;5.63;;
36799;SDS011;22752;51.960;5.886;2023-07-08T13:12:12;8.75;;;5.88;;
36799;SDS011;22752;51.960;5.886;2023-07-08T13:14:41;6.40;;;5.05;;
36799;SDS011;22752;51.960;5.886;2023-07-08T13:17:10;9.25;;;6.00;;
36799;SDS011;22752;51.960;5.886;2023-07-08T13:19:38;9.75;;;5.70;;
36799;SDS011;22752;51.960;5.886;2023-07-08T13:22:05;10.38;;;5.85;;
36799;SDS011;22752;51.960;5.886;2023-07-08T13:24:33;11.13;;;6.32;;
36799;SDS011;22752;51.960;5.886;2023-07-08T13:26:59;6.47;;;5.25;;
36799;SDS011;22752;51.960;5.886;2023-07-08T13:29:24;7.78;;;5.95;;
36799;SDS011;22752;51.960;5.886;2023-07-08T13:31:55;7.57;;;5.70;;
36799;SDS011;22752;51.960;5.886;2023-07-08T13:34:27;8.55;;;5.72;;
36799;SDS011;22752;51.960;5.886;2023-07-08T13:36:53;7.68;;;5.68;;
36799;SDS011;22752;51.960;5.886;2023-07-08T13:39:27;8.10;;;5.57;;
36799;SDS011;22752;51.960;5.886;2023-07-08T13:41:57;8.48;;;5.57;;
36799;SDS011;22752;51.960;5.886;2023-07-08T13:44:24;10.40;;;5.93;;
36799;SDS011;22752;51.960;5.886;2023-07-08T13:51:47;9.27;;;5.75;;
36799;SDS011;22752;51.960;5.886;2023-07-08T13:54:23;6.65;;;5.15;;
36799;SDS011;22752;51.960;5.886;2023-07-08T13:56:51;7.45;;;5.75;;
36799;SDS011;22752;51.960;5.886;2023-07-08T13:59:21;11.05;;;6.07;;
36799;SDS011;22752;51.960;5.886;2023-07-08T14:01:50;6.40;;;5.03;;
36799;SDS011;22752;51.960;5.886;2023-07-08T14:04:18;7.68;;;5.43;;
36799;SDS011;22752;51.960;5.886;2023-07-08T14:06:46;7.15;;;5.38;;
36799;SDS011;22752;51.960;5.886;2023-07-08T14:09:16;8.55;;;5.47;;
36799;SDS011;22752;51.960;5.886;2023-07-08T14:11:46;10.30;;;5.68;;
36799;SDS011;22752;51.960;5.886;2023-07-08T14:14:13;7.68;;;5.45;;
36799;SDS011;22752;51.960;5.886;2023-07-08T14:16:41;6.75;;;4.43;;
36799;SDS011;22752;51.960;5.886;2023-07-08T14:19:13;9.82;;;5.45;;
36799;SDS011;22752;51.960;5.886;2023-07-08T14:21:41;8.85;;;5.07;;
36799;SDS011;22752;51.960;5.886;2023-07-08T14:24:08;8.55;;;5.03;;
36799;SDS011;22752;51.960;5.886;2023-07-08T14:26:42;9.45;;;5.97;;
36799;SDS011;22752;51.960;5.886;2023-07-08T14:29:09;9.40;;;6.00;;
36799;SDS011;22752;51.960;5.886;2023-07-08T14:31:35;6.18;;;5.28;;
36799;SDS011;22752;51.960;5.886;2023-07-08T14:34:03;10.40;;;5.55;;
36799;SDS011;22752;51.960;5.886;2023-07-08T14:36:33;6.55;;;5.28;;
36799;SDS011;22752;51.960;5.886;2023-07-08T14:38:59;6.53;;;5.20;;
36799;SDS011;22752;51.960;5.886;2023-07-08T14:41:26;6.30;;;4.70;;
36799;SDS011;22752;51.960;5.886;2023-07-08T14:43:54;8.73;;;5.07;;
36799;SDS011;22752;51.960;5.886;2023-07-08T14:46:20;5.88;;;4.90;;
36799;SDS011;22752;51.960;5.886;2023-07-08T14:48:45;10.00;;;5.45;;
36799;SDS011;22752;51.960;5.886;2023-07-08T14:51:11;8.05;;;5.57;;
36799;SDS011;22752;51.960;5.886;2023-07-08T14:53:36;6.47;;;4.80;;
36799;SDS011;22752;51.960;5.886;2023-07-08T14:56:07;6.13;;;4.95;;
36799;SDS011;22752;51.960;5.886;2023-07-08T14:58:42;6.75;;;4.97;;
36799;SDS011;22752;51.960;5.886;2023-07-08T15:01:12;6.07;;;4.85;;
36799;SDS011;22752;51.960;5.886;2023-07-08T15:03:44;6.20;;;4.63;;
36799;SDS011;22752;51.960;5.886;2023-07-08T15:06:10;9.02;;;4.88;;
36799;SDS011;22752;51.960;5.886;2023-07-08T15:08:36;8.88;;;4.95;;
36799;SDS011;22752;51.960;5.886;2023-07-08T15:11:02;8.00;;;5.40;;
36799;SDS011;22752;51.960;5.886;2023-07-08T15:13:31;7.05;;;5.32;;
36799;SDS011;22752;51.960;5.886;2023-07-08T15:15:58;5.85;;;4.50;;
36799;SDS011;22752;51.960;5.886;2023-07-08T15:18:24;6.68;;;5.20;;
36799;SDS011;22752;51.960;5.886;2023-07-08T15:20:50;8.60;;;4.93;;
36799;SDS011;22752;51.960;5.886;2023-07-08T15:23:15;7.72;;;5.25;;
36799;SDS011;22752;51.960;5.886;2023-07-08T15:25:42;7.95;;;5.00;;
36799;SDS011;22752;51.960;5.886;2023-07-08T15:28:52;6.82;;;4.90;;
36799;SDS011;22752;51.960;5.886;2023-07-08T15:31:12;7.22;;;4.68;;
36799;SDS011;22752;51.960;5.886;2023-07-08T15:33:38;6.80;;;4.70;;
36799;SDS011;22752;51.960;5.886;2023-07-08T15:36:04;6.43;;;5.10;;
36799;SDS011;22752;51.960;5.886;2023-07-08T15:38:29;6.53;;;4.40;;
36799;SDS011;22752;51.960;5.886;2023-07-08T15:40:55;8.43;;;5.03;;
36799;SDS011;22752;51.960;5.886;2023-07-08T15:43:21;7.72;;;4.95;;
36799;SDS011;22752;51.960;5.886;2023-07-08T15:45:46;7.78;;;5.10;;
36799;SDS011;22752;51.960;5.886;2023-07-08T15:48:16;6.90;;;5.15;;
36799;SDS011;22752;51.960;5.886;2023-07-08T15:50:42;8.30;;;5.25;;
36799;SDS011;22752;51.960;5.886;2023-07-08T15:53:09;10.93;;;5.05;;
36799;SDS011;22752;51.960;5.886;2023-07-08T15:55:37;5.80;;;4.85;;